sensor_id;sensor_type;location;lat;lon;timestamp;pressure;altitude;pressure_sealevel;temperature;humidity
23318;BME280;11831;55.918;37.746;2024-01-30T00:00:29;100230.50;;;1.61;0.00
23318;BME280;11831;55.918;37.746;2024-01-30T00:02:56;100234.75;;;1.80;0.00
23318;BME280;11831;55.918;37.746;2024-01-30T00:05:22;100240.84;;;1.45;0.00
23318;BME280;11831;55.918;37.746;2024-01-30T00:07:50;100239.12;;;1.71;0.00
23318;BME280;11831;55.918;37.746;2024-01-30T00:10:16;100234.25;;;1.59;0.00
23318;BME280;11831;55.918;37.746;2024-01-30T00:12:44;100217.94;;;1.81;0.00
23318;BME280;11831;55.918;37.746;2024-01-30T00:15:10;100246.59;;;1.40;0.00
23318;BME280;11831;55.918;37.746;2024-01-30T00:17:37;100251.28;;;1.64;0.00
23318;BME280;11831;55.918;37.746;2024-01-30T00:20:04;100240.19;;;1.61;0.00
23318;BME280;11831;55.918;37.746;2024-01-30T00:22:35;100242.16;;;1.59;0.00
23318;BME280;11831;55.918;37.746;2024-01-30T00:25:01;100221.91;;;1.59;0.00
23318;BME280;11831;55.918;37.746;2024-01-30T00:27:30;100237.09;;;1.65;0.00
23318;BME280;11831;55.918;37.746;2024-01-30T00:29:57;100227.09;;;1.69;0.00
23318;BME280;11831;55.918;37.746;2024-01-30T00:32:24;100220.94;;;2.04;0.00
23318;BME280;11831;55.918;37.746;2024-01-30T00:34:50;100232.81;;;1.46;0.00
23318;BME280;11831;55.918;37.746;2024-01-30T00:37:17;100235.66;;;1.71;0.00
23318;BME280;11831;55.918;37.746;2024-01-30T00:39:44;100214.09;;;1.93;0.00
23318;BME280;11831;55.918;37.746;2024-01-30T00:42:10;100238.88;;;1.82;0.00
23318;BME280;11831;55.918;37.746;2024-01-30T00:44:37;100223.78;;;1.67;0.00
23318;BME280;11831;55.918;37.746;2024-01-30T00:47:05;100204.03;;;1.71;0.00
23318;BME280;11831;55.918;37.746;2024-01-30T00:49:31;100260.06;;;1.37;0.00
23318;BME280;11831;55.918;37.746;2024-01-30T00:51:58;100230.19;;;2.08;0.00
23318;BME280;11831;55.918;37.746;2024-01-30T00:54:25;100205.31;;;1.84;0.00
23318;BME280;11831;55.918;37.746;2024-01-30T00:56:51;100217.47;;;1.60;0.00
23318;BME280;11831;55.918;37.746;2024-01-30T00:59:18;100219.53;;;1.74;0.00
23318;BME280;11831;55.918;37.746;2024-01-30T01:01:44;100216.53;;;1.69;0.00
23318;BME280;11831;55.918;37.746;2024-01-30T01:04:11;100227.03;;;1.61;0.00
23318;BME280;11831;55.918;37.746;2024-01-30T01:06:37;100227.31;;;1.75;0.00
23318;BME280;11831;55.918;37.746;2024-01-30T01:09:04;100215.09;;;1.74;0.00
23318;BME280;11831;55.918;37.746;2024-01-30T01:11:31;100207.13;;;1.66;0.00
23318;BME280;11831;55.918;37.746;2024-01-30T01:13:57;100209.06;;;2.26;0.00
23318;BME280;11831;55.918;37.746;2024-01-30T01:16:24;100198.31;;;2.01;0.00
23318;BME280;11831;55.918;37.746;2024-01-30T01:18:51;100209.91;;;1.29;0.00
23318;BME280;11831;55.918;37.746;2024-01-30T01:21:18;100220.22;;;1.40;0.00
23318;BME280;11831;55.918;37.746;2024-01-30T01:23:44;100190.84;;;1.89;0.00
23318;BME280;11831;55.918;37.746;2024-01-30T01:26:11;100198.47;;;2.00;0.00
23318;BME280;11831;55.918;37.746;2024-01-30T01:28:40;100223.91;;;1.83;0.00
23318;BME280;11831;55.918;37.746;2024-01-30T01:31:07;100220.00;;;1.69;0.00
23318;BME280;11831;55.918;37.746;2024-01-30T01:33:34;100174.34;;;1.69;0.00
23318;BME280;11831;55.918;37.746;2024-01-30T01:36:03;100176.75;;;1.80;0.00
23318;BME280;11831;55.918;37.746;2024-01-30T01:38:29;100190.38;;;1.75;0.00
23318;BME280;11831;55.918;37.746;2024-01-30T01:40:56;100192.75;;;1.61;0.00
23318;BME280;11831;55.918;37.746;2024-01-30T01:43:23;100189.28;;;2.04;0.00
23318;BME280;11831;55.918;37.746;2024-01-30T01:45:50;100205.22;;;1.76;0.00
23318;BME280;11831;55.918;37.746;2024-01-30T01:48:17;100207.19;;;1.74;0.00
23318;BME280;11831;55.918;37.746;2024-01-30T01:50:44;100229.19;;;1.47;0.00
23318;BME280;11831;55.918;37.746;2024-01-30T01:53:12;100192.91;;;1.59;0.00
23318;BME280;11831;55.918;37.746;2024-01-30T01:55:38;100245.59;;;1.41;0.00
23318;BME280;11831;55.918;37.746;2024-01-30T01:58:05;100234.31;;;1.67;0.00
23318;BME280;11831;55.918;37.746;2024-01-30T02:00:32;100215.88;;;1.84;0.00
23318;BME280;11831;55.918;37.746;2024-01-30T02:02:59;100180.34;;;1.97;0.00
23318;BME280;11831;55.918;37.746;2024-01-30T02:05:26;100242.34;;;1.83;0.00
23318;BME280;11831;55.918;37.746;2024-01-30T02:07:54;100197.66;;;2.25;0.00
23318;BME280;11831;55.918;37.746;2024-01-30T02:10:21;100179.00;;;1.93;0.00
23318;BME280;11831;55.918;37.746;2024-01-30T02:12:48;100175.38;;;1.94;0.00
23318;BME280;11831;55.918;37.746;2024-01-30T02:15:15;100192.56;;;1.80;0.00
23318;BME280;11831;55.918;37.746;2024-01-30T02:17:43;100196.31;;;1.95;0.00
23318;BME280;11831;55.918;37.746;2024-01-30T02:20:09;100208.09;;;2.09;0.00
23318;BME280;11831;55.918;37.746;2024-01-30T02:22:37;100243.72;;;1.69;0.00
23318;BME280;11831;55.918;37.746;2024-01-30T02:25:05;100217.75;;;1.57;0.00
23318;BME280;11831;55.918;37.746;2024-01-30T02:27:31;100205.69;;;1.72;0.00
23318;BME280;11831;55.918;37.746;2024-01-30T02:29:58;100204.59;;;1.82;0.00
23318;BME280;11831;55.918;37.746;2024-01-30T02:32:25;100188.56;;;1.76;0.00
23318;BME280;11831;55.918;37.746;2024-01-30T02:34:52;100204.84;;;1.71;0.00
23318;BME280;11831;55.918;37.746;2024-01-30T02:37:18;100167.25;;;1.87;0.00
23318;BME280;11831;55.918;37.746;2024-01-30T02:39:45;100197.41;;;1.67;0.00
23318;BME280;11831;55.918;37.746;2024-01-30T02:42:11;100163.66;;;1.70;0.00
23318;BME280;11831;55.918;37.746;2024-01-30T02:44:38;100188.34;;;2.13;0.00
23318;BME280;11831;55.918;37.746;2024-01-30T02:47:05;100199.00;;;2.03;0.00
23318;BME280;11831;55.918;37.746;2024-01-30T02:49:31;100192.53;;;2.24;0.00
23318;BME280;11831;55.918;37.746;2024-01-30T02:51:58;100189.69;;;1.91;0.00
23318;BME280;11831;55.918;37.746;2024-01-30T02:54:24;100183.34;;;2.02;0.00
23318;BME280;11831;55.918;37.746;2024-01-30T02:56:51;100202.94;;;1.99;0.00
23318;BME280;11831;55.918;37.746;2024-01-30T02:59:17;100192.78;;;2.12;0.00
23318;BME280;11831;55.918;37.746;2024-01-30T03:01:44;100209.59;;;1.85;0.00
23318;BME280;11831;55.918;37.746;2024-01-30T03:04:11;100200.25;;;2.17;0.00
23318;BME280;11831;55.918;37.746;2024-01-30T03:06:37;100228.22;;;2.10;0.00
23318;BME280;11831;55.918;37.746;2024-01-30T03:09:04;100201.91;;;2.18;0.00
23318;BME280;11831;55.918;37.746;2024-01-30T03:11:31;100207.09;;;2.28;0.00
23318;BME280;11831;55.918;37.746;2024-01-30T03:13:58;100207.13;;;2.36;0.00
23318;BME280;11831;55.918;37.746;2024-01-30T03:16:24;100200.25;;;2.17;0.00
23318;BME280;11831;55.918;37.746;2024-01-30T03:18:51;100212.78;;;2.15;0.00
23318;BME280;11831;55.918;37.746;2024-01-30T03:21:17;100213.47;;;2.17;0.00
23318;BME280;11831;55.918;37.746;2024-01-30T03:23:44;100212.03;;;2.05;0.00
23318;BME280;11831;55.918;37.746;2024-01-30T03:26:11;100211.00;;;2.49;0.00
23318;BME280;11831;55.918;37.746;2024-01-30T03:28:38;100200.06;;;2.44;0.00
23318;BME280;11831;55.918;37.746;2024-01-30T03:31:05;100247.97;;;2.24;0.00
23318;BME280;11831;55.918;37.746;2024-01-30T03:33:31;100209.75;;;2.62;0.00
23318;BME280;11831;55.918;37.746;2024-01-30T03:36:03;100205.31;;;2.36;0.00
23318;BME280;11831;55.918;37.746;2024-01-30T03:38:30;100206.25;;;2.27;0.00
23318;BME280;11831;55.918;37.746;2024-01-30T03:40:59;100189.13;;;2.65;0.00
23318;BME280;11831;55.918;37.746;2024-01-30T03:43:26;100197.97;;;2.48;0.00
23318;BME280;11831;55.918;37.746;2024-01-30T03:45:53;100221.97;;;2.37;0.00
23318;BME280;11831;55.918;37.746;2024-01-30T03:48:21;100249.81;;;2.31;0.00
23318;BME280;11831;55.918;37.746;2024-01-30T03:50:48;100256.06;;;2.04;0.00
23318;BME280;11831;55.918;37.746;2024-01-30T03:53:14;100237.13;;;2.61;0.00
23318;BME280;11831;55.918;37.746;2024-01-30T03:55:41;100218.97;;;2.58;0.00
23318;BME280;11831;55.918;37.746;2024-01-30T03:58:07;100244.50;;;2.49;0.00
23318;BME280;11831;55.918;37.746;2024-01-30T04:00:34;100220.94;;;2.30;0.00
23318;BME280;11831;55.918;37.746;2024-01-30T04:03:01;100229.50;;;2.24;0.00
23318;BME280;11831;55.918;37.746;2024-01-30T04:05:28;100239.56;;;2.28;0.00
23318;BME280;11831;55.918;37.746;2024-01-30T04:07:55;100233.56;;;2.44;0.00
23318;BME280;11831;55.918;37.746;2024-01-30T04:10:21;100222.41;;;2.24;0.00
23318;BME280;11831;55.918;37.746;2024-01-30T04:12:49;100234.63;;;2.25;0.00
23318;BME280;11831;55.918;37.746;2024-01-30T04:15:16;100238.13;;;2.34;0.00
23318;BME280;11831;55.918;37.746;2024-01-30T04:17:43;100266.28;;;2.51;0.00
23318;BME280;11831;55.918;37.746;2024-01-30T04:20:18;100213.34;;;2.53;0.00
23318;BME280;11831;55.918;37.746;2024-01-30T04:22:46;100216.59;;;2.80;0.00
23318;BME280;11831;55.918;37.746;2024-01-30T04:25:15;100222.16;;;2.43;0.00
23318;BME280;11831;55.918;37.746;2024-01-30T04:27:42;100210.37;;;2.56;0.00
23318;BME280;11831;55.918;37.746;2024-01-30T04:30:09;100219.09;;;2.48;0.00
23318;BME280;11831;55.918;37.746;2024-01-30T04:32:36;100204.53;;;2.78;0.00
23318;BME280;11831;55.918;37.746;2024-01-30T04:35:03;100217.59;;;2.79;0.00
23318;BME280;11831;55.918;37.746;2024-01-30T04:37:31;100198.72;;;2.40;0.00
23318;BME280;11831;55.918;37.746;2024-01-30T04:39:57;100212.34;;;2.96;0.00
23318;BME280;11831;55.918;37.746;2024-01-30T04:42:24;100224.88;;;2.52;0.00
23318;BME280;11831;55.918;37.746;2024-01-30T04:44:50;100250.00;;;2.64;0.00
23318;BME280;11831;55.918;37.746;2024-01-30T04:47:17;100219.28;;;2.89;0.00
23318;BME280;11831;55.918;37.746;2024-01-30T04:49:43;100220.09;;;3.39;0.00
23318;BME280;11831;55.918;37.746;2024-01-30T04:52:10;100230.63;;;2.81;0.00
23318;BME280;11831;55.918;37.746;2024-01-30T04:54:36;100214.66;;;2.57;0.00
23318;BME280;11831;55.918;37.746;2024-01-30T04:57:03;100225.12;;;2.40;0.00
23318;BME280;11831;55.918;37.746;2024-01-30T04:59:31;100225.78;;;2.68;0.00
23318;BME280;11831;55.918;37.746;2024-01-30T05:01:58;100208.06;;;3.03;0.00
23318;BME280;11831;55.918;37.746;2024-01-30T05:04:24;100196.25;;;3.15;0.00
23318;BME280;11831;55.918;37.746;2024-01-30T05:06:51;100209.69;;;2.88;0.00
23318;BME280;11831;55.918;37.746;2024-01-30T05:09:17;100205.94;;;2.64;0.00
23318;BME280;11831;55.918;37.746;2024-01-30T05:11:45;100193.03;;;3.03;0.00
23318;BME280;11831;55.918;37.746;2024-01-30T05:14:11;100207.94;;;2.70;0.00
23318;BME280;11831;55.918;37.746;2024-01-30T05:16:38;100208.62;;;3.15;0.00
23318;BME280;11831;55.918;37.746;2024-01-30T05:19:04;100225.88;;;3.43;0.00
23318;BME280;11831;55.918;37.746;2024-01-30T05:21:31;100218.66;;;2.61;0.00
23318;BME280;11831;55.918;37.746;2024-01-30T05:23:57;100215.16;;;2.94;0.00
23318;BME280;11831;55.918;37.746;2024-01-30T05:26:24;100224.16;;;3.26;0.00
23318;BME280;11831;55.918;37.746;2024-01-30T05:28:50;100231.25;;;3.17;0.00
23318;BME280;11831;55.918;37.746;2024-01-30T05:31:35;100225.53;;;2.88;0.00
23318;BME280;11831;55.918;37.746;2024-01-30T05:34:20;100234.13;;;2.90;0.00
23318;BME280;11831;55.918;37.746;2024-01-30T05:36:46;100228.34;;;2.86;0.00
23318;BME280;11831;55.918;37.746;2024-01-30T05:39:13;100239.69;;;3.21;0.00
23318;BME280;11831;55.918;37.746;2024-01-30T05:41:39;100229.22;;;2.61;0.00
23318;BME280;11831;55.918;37.746;2024-01-30T05:44:06;100232.06;;;2.75;0.00
23318;BME280;11831;55.918;37.746;2024-01-30T05:46:33;100244.37;;;2.93;0.00
23318;BME280;11831;55.918;37.746;2024-01-30T05:48:59;100238.50;;;2.73;0.00
23318;BME280;11831;55.918;37.746;2024-01-30T05:51:26;100259.00;;;3.21;0.00
23318;BME280;11831;55.918;37.746;2024-01-30T05:53:54;100242.31;;;3.21;0.00
23318;BME280;11831;55.918;37.746;2024-01-30T05:56:20;100246.25;;;3.08;0.00
23318;BME280;11831;55.918;37.746;2024-01-30T05:58:47;100246.72;;;3.04;0.00
23318;BME280;11831;55.918;37.746;2024-01-30T06:01:13;100249.81;;;3.41;0.00
23318;BME280;11831;55.918;37.746;2024-01-30T06:03:40;100228.19;;;3.46;0.00
23318;BME280;11831;55.918;37.746;2024-01-30T06:06:06;100251.97;;;2.88;0.00
23318;BME280;11831;55.918;37.746;2024-01-30T06:08:33;100239.47;;;3.06;0.00
23318;BME280;11831;55.918;37.746;2024-01-30T06:10:59;100247.53;;;3.47;0.00
23318;BME280;11831;55.918;37.746;2024-01-30T06:13:27;100272.59;;;3.34;0.00
23318;BME280;11831;55.918;37.746;2024-01-30T06:15:53;100252.31;;;3.59;0.00
23318;BME280;11831;55.918;37.746;2024-01-30T06:18:19;100245.16;;;3.35;0.00
23318;BME280;11831;55.918;37.746;2024-01-30T06:20:46;100239.25;;;3.58;0.00
23318;BME280;11831;55.918;37.746;2024-01-30T06:23:13;100251.16;;;3.46;0.00
23318;BME280;11831;55.918;37.746;2024-01-30T06:25:40;100251.81;;;3.39;0.00
23318;BME280;11831;55.918;37.746;2024-01-30T06:28:07;100254.63;;;3.62;0.00
23318;BME280;11831;55.918;37.746;2024-01-30T06:30:33;100268.81;;;3.37;0.00
23318;BME280;11831;55.918;37.746;2024-01-30T06:33:00;100265.03;;;3.48;0.00
23318;BME280;11831;55.918;37.746;2024-01-30T06:35:26;100274.06;;;3.29;0.00
23318;BME280;11831;55.918;37.746;2024-01-30T06:37:55;100288.06;;;3.13;0.00
23318;BME280;11831;55.918;37.746;2024-01-30T06:40:21;100275.84;;;3.12;0.00
23318;BME280;11831;55.918;37.746;2024-01-30T06:42:48;100284.69;;;3.03;0.00
23318;BME280;11831;55.918;37.746;2024-01-30T06:45:14;100277.66;;;3.78;0.00
23318;BME280;11831;55.918;37.746;2024-01-30T06:47:41;100265.91;;;3.81;0.00
23318;BME280;11831;55.918;37.746;2024-01-30T06:50:08;100267.72;;;3.72;0.00
23318;BME280;11831;55.918;37.746;2024-01-30T06:52:34;100274.41;;;3.34;0.00
23318;BME280;11831;55.918;37.746;2024-01-30T06:55:01;100272.53;;;3.68;0.00
23318;BME280;11831;55.918;37.746;2024-01-30T06:57:30;100284.69;;;3.37;0.00
23318;BME280;11831;55.918;37.746;2024-01-30T06:59:57;100276.94;;;3.43;0.00
23318;BME280;11831;55.918;37.746;2024-01-30T07:02:23;100281.28;;;3.77;0.00
23318;BME280;11831;55.918;37.746;2024-01-30T07:04:50;100288.75;;;4.14;0.00
23318;BME280;11831;55.918;37.746;2024-01-30T07:07:16;100286.59;;;3.93;0.00
23318;BME280;11831;55.918;37.746;2024-01-30T07:09:43;100289.81;;;3.38;0.00
23318;BME280;11831;55.918;37.746;2024-01-30T07:12:10;100288.91;;;3.88;0.00
23318;BME280;11831;55.918;37.746;2024-01-30T07:14:36;100293.84;;;3.83;0.00
23318;BME280;11831;55.918;37.746;2024-01-30T07:17:03;100299.09;;;3.59;0.00
23318;BME280;11831;55.918;37.746;2024-01-30T07:19:29;100285.44;;;3.80;0.00
23318;BME280;11831;55.918;37.746;2024-01-30T07:21:56;100290.41;;;4.15;0.00
23318;BME280;11831;55.918;37.746;2024-01-30T07:24:22;100293.97;;;3.65;0.00
23318;BME280;11831;55.918;37.746;2024-01-30T07:26:48;100295.84;;;4.22;0.00
23318;BME280;11831;55.918;37.746;2024-01-30T07:29:15;100283.94;;;4.18;0.00
23318;BME280;11831;55.918;37.746;2024-01-30T07:31:41;100290.88;;;3.86;0.00
23318;BME280;11831;55.918;37.746;2024-01-30T07:34:08;100285.75;;;3.93;0.00
23318;BME280;11831;55.918;37.746;2024-01-30T07:36:35;100297.84;;;4.03;0.00
23318;BME280;11831;55.918;37.746;2024-01-30T07:39:01;100291.06;;;4.33;0.00
23318;BME280;11831;55.918;37.746;2024-01-30T07:41:28;100290.19;;;4.65;0.00
23318;BME280;11831;55.918;37.746;2024-01-30T07:43:54;100294.37;;;4.11;0.00
23318;BME280;11831;55.918;37.746;2024-01-30T07:46:21;100278.16;;;3.73;0.00
23318;BME280;11831;55.918;37.746;2024-01-30T07:48:47;100295.31;;;3.61;0.00
23318;BME280;11831;55.918;37.746;2024-01-30T07:51:13;100279.31;;;4.20;0.00
23318;BME280;11831;55.918;37.746;2024-01-30T07:53:40;100264.59;;;3.77;0.00
23318;BME280;11831;55.918;37.746;2024-01-30T07:56:17;100262.94;;;3.67;0.00
23318;BME280;11831;55.918;37.746;2024-01-30T07:58:43;100266.91;;;3.71;0.00
23318;BME280;11831;55.918;37.746;2024-01-30T08:01:11;100279.22;;;4.77;0.00
23318;BME280;11831;55.918;37.746;2024-01-30T08:03:37;100270.38;;;5.01;0.00
23318;BME280;11831;55.918;37.746;2024-01-30T08:06:06;100271.66;;;4.65;0.00
23318;BME280;11831;55.918;37.746;2024-01-30T08:08:33;100281.69;;;4.78;0.00
23318;BME280;11831;55.918;37.746;2024-01-30T08:10:59;100299.13;;;4.56;0.00
23318;BME280;11831;55.918;37.746;2024-01-30T08:13:26;100287.94;;;4.30;0.00
23318;BME280;11831;55.918;37.746;2024-01-30T08:15:52;100291.37;;;4.39;0.00
23318;BME280;11831;55.918;37.746;2024-01-30T08:18:18;100290.75;;;4.12;0.00
23318;BME280;11831;55.918;37.746;2024-01-30T08:20:45;100290.66;;;4.77;0.00
23318;BME280;11831;55.918;37.746;2024-01-30T08:23:11;100316.13;;;4.86;0.00
23318;BME280;11831;55.918;37.746;2024-01-30T08:25:38;100319.38;;;4.33;0.00
23318;BME280;11831;55.918;37.746;2024-01-30T08:28:04;100323.78;;;4.57;0.00
23318;BME280;11831;55.918;37.746;2024-01-30T08:30:31;100320.91;;;4.99;0.00
23318;BME280;11831;55.918;37.746;2024-01-30T08:32:57;100332.59;;;4.41;0.00
23318;BME280;11831;55.918;37.746;2024-01-30T08:35:23;100324.31;;;4.03;0.00
23318;BME280;11831;55.918;37.746;2024-01-30T08:37:50;100332.00;;;5.03;0.00
23318;BME280;11831;55.918;37.746;2024-01-30T08:40:16;100323.41;;;4.84;0.00
23318;BME280;11831;55.918;37.746;2024-01-30T08:42:44;100298.97;;;4.50;0.00
23318;BME280;11831;55.918;37.746;2024-01-30T08:45:10;100290.97;;;4.90;0.00
23318;BME280;11831;55.918;37.746;2024-01-30T08:47:36;100296.00;;;4.61;0.00
23318;BME280;11831;55.918;37.746;2024-01-30T08:50:03;100277.87;;;5.28;0.00
23318;BME280;11831;55.918;37.746;2024-01-30T08:52:32;100289.69;;;4.70;0.00
23318;BME280;11831;55.918;37.746;2024-01-30T08:55:00;100278.94;;;4.63;0.00
23318;BME280;11831;55.918;37.746;2024-01-30T08:57:27;100286.84;;;4.80;0.00
23318;BME280;11831;55.918;37.746;2024-01-30T08:59:56;100287.13;;;4.85;0.00
23318;BME280;11831;55.918;37.746;2024-01-30T09:02:23;100300.81;;;4.25;0.00
23318;BME280;11831;55.918;37.746;2024-01-30T09:04:49;100297.50;;;4.23;0.00
23318;BME280;11831;55.918;37.746;2024-01-30T09:07:15;100296.50;;;4.64;0.00
23318;BME280;11831;55.918;37.746;2024-01-30T09:09:42;100312.53;;;3.98;0.00
23318;BME280;11831;55.918;37.746;2024-01-30T09:12:08;100303.47;;;4.33;0.00
23318;BME280;11831;55.918;37.746;2024-01-30T09:14:38;100289.34;;;4.73;0.00
23318;BME280;11831;55.918;37.746;2024-01-30T09:17:05;100300.91;;;5.27;0.00
23318;BME280;11831;55.918;37.746;2024-01-30T09:19:31;100292.50;;;5.16;0.00
23318;BME280;11831;55.918;37.746;2024-01-30T09:21:58;100294.28;;;5.32;0.00
23318;BME280;11831;55.918;37.746;2024-01-30T09:24:26;100294.28;;;5.62;0.00
23318;BME280;11831;55.918;37.746;2024-01-30T09:26:53;100288.06;;;5.70;0.00
23318;BME280;11831;55.918;37.746;2024-01-30T09:29:19;100277.47;;;5.08;0.00
23318;BME280;11831;55.918;37.746;2024-01-30T09:31:46;100277.03;;;5.81;0.00
23318;BME280;11831;55.918;37.746;2024-01-30T09:34:13;100276.50;;;4.29;0.00
23318;BME280;11831;55.918;37.746;2024-01-30T09:36:39;100281.66;;;4.94;0.00
23318;BME280;11831;55.918;37.746;2024-01-30T09:39:06;100284.13;;;5.35;0.00
23318;BME280;11831;55.918;37.746;2024-01-30T09:41:43;100286.53;;;5.22;0.00
23318;BME280;11831;55.918;37.746;2024-01-30T09:44:11;100290.66;;;4.77;0.00
23318;BME280;11831;55.918;37.746;2024-01-30T09:46:57;100291.66;;;5.23;0.00
23318;BME280;11831;55.918;37.746;2024-01-30T09:49:32;100292.25;;;5.34;0.00
23318;BME280;11831;55.918;37.746;2024-01-30T09:51:59;100299.84;;;5.06;0.00
23318;BME280;11831;55.918;37.746;2024-01-30T09:54:26;100299.84;;;4.34;0.00
23318;BME280;11831;55.918;37.746;2024-01-30T09:56:54;100274.97;;;5.07;0.00
23318;BME280;11831;55.918;37.746;2024-01-30T09:59:21;100293.38;;;4.45;0.00
23318;BME280;11831;55.918;37.746;2024-01-30T10:01:48;100287.56;;;5.44;0.00
23318;BME280;11831;55.918;37.746;2024-01-30T10:04:16;100300.66;;;5.06;0.00
23318;BME280;11831;55.918;37.746;2024-01-30T10:06:42;100303.59;;;5.19;0.00
23318;BME280;11831;55.918;37.746;2024-01-30T10:09:09;100284.00;;;5.28;0.00
23318;BME280;11831;55.918;37.746;2024-01-30T10:11:36;100293.75;;;5.67;0.00
23318;BME280;11831;55.918;37.746;2024-01-30T10:14:03;100291.37;;;5.72;0.00
23318;BME280;11831;55.918;37.746;2024-01-30T10:16:29;100296.31;;;5.83;0.00
23318;BME280;11831;55.918;37.746;2024-01-30T10:18:56;100293.38;;;5.70;0.00
23318;BME280;11831;55.918;37.746;2024-01-30T10:21:23;100305.47;;;5.42;0.00
23318;BME280;11831;55.918;37.746;2024-01-30T10:23:49;100292.78;;;5.60;0.00
23318;BME280;11831;55.918;37.746;2024-01-30T10:26:16;100291.37;;;5.72;0.00
23318;BME280;11831;55.918;37.746;2024-01-30T10:28:46;100293.50;;;5.77;0.00
23318;BME280;11831;55.918;37.746;2024-01-30T10:31:31;100280.75;;;5.72;0.00
23318;BME280;11831;55.918;37.746;2024-01-30T10:33:58;100287.06;;;5.71;0.00
23318;BME280;11831;55.918;37.746;2024-01-30T10:36:28;100285.25;;;5.72;0.00
23318;BME280;11831;55.918;37.746;2024-01-30T10:38:57;100296.41;;;4.97;0.00
23318;BME280;11831;55.918;37.746;2024-01-30T10:41:26;100265.09;;;5.62;0.00
23318;BME280;11831;55.918;37.746;2024-01-30T10:44:09;100284.87;;;5.75;0.00
23318;BME280;11831;55.918;37.746;2024-01-30T10:46:38;100290.88;;;5.07;0.00
23318;BME280;11831;55.918;37.746;2024-01-30T10:49:05;100287.47;;;4.90;0.00
23318;BME280;11831;55.918;37.746;2024-01-30T10:51:32;100307.34;;;4.86;0.00
23318;BME280;11831;55.918;37.746;2024-01-30T10:54:02;100299.62;;;4.68;0.00
23318;BME280;11831;55.918;37.746;2024-01-30T10:56:29;100299.16;;;5.12;0.00
23318;BME280;11831;55.918;37.746;2024-01-30T10:58:58;100283.22;;;5.51;0.00
23318;BME280;11831;55.918;37.746;2024-01-30T11:01:25;100296.66;;;5.10;0.00
23318;BME280;11831;55.918;37.746;2024-01-30T11:03:55;100303.44;;;5.13;0.00
23318;BME280;11831;55.918;37.746;2024-01-30T11:06:24;100310.03;;;5.87;0.00
23318;BME280;11831;55.918;37.746;2024-01-30T11:09:01;100298.69;;;5.70;0.00
23318;BME280;11831;55.918;37.746;2024-01-30T11:11:57;100306.19;;;5.36;0.00
23318;BME280;11831;55.918;37.746;2024-01-30T11:14:29;100299.28;;;5.18;0.00
23318;BME280;11831;55.918;37.746;2024-01-30T11:16:59;100297.44;;;5.27;0.00
23318;BME280;11831;55.918;37.746;2024-01-30T11:19:26;100321.09;;;5.37;0.00
23318;BME280;11831;55.918;37.746;2024-01-30T11:21:53;100328.13;;;5.13;0.00
23318;BME280;11831;55.918;37.746;2024-01-30T11:24:20;100323.03;;;5.04;0.00
23318;BME280;11831;55.918;37.746;2024-01-30T11:26:55;100318.69;;;5.50;0.00
23318;BME280;11831;55.918;37.746;2024-01-30T11:29:27;100333.66;;;5.43;0.00
23318;BME280;11831;55.918;37.746;2024-01-30T11:31:55;100325.09;;;5.33;0.00
23318;BME280;11831;55.918;37.746;2024-01-30T11:34:22;100324.31;;;5.16;0.00
23318;BME280;11831;55.918;37.746;2024-01-30T11:36:56;100322.84;;;5.13;0.00
23318;BME280;11831;55.918;37.746;2024-01-30T11:39:26;100333.03;;;4.93;0.00
23318;BME280;11831;55.918;37.746;2024-01-30T11:41:53;100334.34;;;4.97;0.00
23318;BME280;11831;55.918;37.746;2024-01-30T11:44:21;100340.81;;;4.95;0.00
23318;BME280;11831;55.918;37.746;2024-01-30T11:46:48;100341.34;;;4.66;0.00
23318;BME280;11831;55.918;37.746;2024-01-30T11:49:18;100347.00;;;4.63;0.00
23318;BME280;11831;55.918;37.746;2024-01-30T11:51:48;100339.09;;;5.10;0.00
23318;BME280;11831;55.918;37.746;2024-01-30T11:54:18;100335.91;;;5.15;0.00
23318;BME280;11831;55.918;37.746;2024-01-30T11:56:45;100333.56;;;4.64;0.00
23318;BME280;11831;55.918;37.746;2024-01-30T11:59:11;100336.00;;;5.38;0.00
23318;BME280;11831;55.918;37.746;2024-01-30T12:01:38;100346.78;;;5.36;0.00
23318;BME280;11831;55.918;37.746;2024-01-30T12:04:05;100348.81;;;5.26;0.00
23318;BME280;11831;55.918;37.746;2024-01-30T12:06:35;100343.62;;;4.93;0.00
23318;BME280;11831;55.918;37.746;2024-01-30T12:09:03;100338.41;;;5.16;0.00
23318;BME280;11831;55.918;37.746;2024-01-30T12:11:47;100354.31;;;5.16;0.00
23318;BME280;11831;55.918;37.746;2024-01-30T12:14:15;100350.16;;;5.61;0.00
23318;BME280;11831;55.918;37.746;2024-01-30T12:16:42;100354.12;;;5.65;0.00
23318;BME280;11831;55.918;37.746;2024-01-30T12:19:09;100346.31;;;5.33;0.00
23318;BME280;11831;55.918;37.746;2024-01-30T12:21:35;100356.50;;;5.05;0.00
23318;BME280;11831;55.918;37.746;2024-01-30T12:24:02;100358.03;;;4.99;0.00
23318;BME280;11831;55.918;37.746;2024-01-30T12:26:29;100361.03;;;4.80;0.00
23318;BME280;11831;55.918;37.746;2024-01-30T12:28:56;100351.22;;;4.88;0.00
23318;BME280;11831;55.918;37.746;2024-01-30T12:31:28;100360.94;;;5.59;0.00
23318;BME280;11831;55.918;37.746;2024-01-30T12:33:55;100366.37;;;5.27;0.00
23318;BME280;11831;55.918;37.746;2024-01-30T12:36:22;100362.59;;;5.21;0.00
23318;BME280;11831;55.918;37.746;2024-01-30T12:38:48;100353.06;;;5.74;0.00
23318;BME280;11831;55.918;37.746;2024-01-30T12:41:15;100348.09;;;4.93;0.00
23318;BME280;11831;55.918;37.746;2024-01-30T12:43:42;100351.09;;;5.37;0.00
23318;BME280;11831;55.918;37.746;2024-01-30T12:46:09;100357.31;;;5.21;0.00
23318;BME280;11831;55.918;37.746;2024-01-30T12:48:35;100351.56;;;4.93;0.00
23318;BME280;11831;55.918;37.746;2024-01-30T12:51:02;100355.53;;;4.97;0.00
23318;BME280;11831;55.918;37.746;2024-01-30T12:53:28;100350.47;;;5.27;0.00
23318;BME280;11831;55.918;37.746;2024-01-30T12:55:55;100355.06;;;4.94;0.00
23318;BME280;11831;55.918;37.746;2024-01-30T12:58:21;100356.53;;;5.44;0.00
23318;BME280;11831;55.918;37.746;2024-01-30T13:00:48;100353.81;;;5.13;0.00